sensor_id;sensor_type;location;lat;lon;timestamp;P1;durP1;ratioP1;P2;durP2;ratioP2
12970;SDS011;6550;48.650;8.774;2023-04-01T00:00:27;1.47;;;0.40;;
12970;SDS011;6550;48.650;8.774;2023-04-01T00:02:54;0.97;;;0.60;;
12970;SDS011;6550;48.650;8.774;2023-04-01T00:05:24;0.67;;;0.57;;
12970;SDS011;6550;48.650;8.774;2023-04-01T00:07:51;0.60;;;0.50;;
12970;SDS011;6550;48.650;8.774;2023-04-01T00:10:20;0.93;;;0.63;;
12970;SDS011;6550;48.650;8.774;2023-04-01T00:12:47;1.40;;;0.63;;
12970;SDS011;6550;48.650;8.774;2023-04-01T00:15:14;0.90;;;0.77;;
12970;SDS011;6550;48.650;8.774;2023-04-01T00:17:41;0.40;;;0.40;;
12970;SDS011;6550;48.650;8.774;2023-04-01T00:20:08;0.97;;;0.40;;
12970;SDS011;6550;48.650;8.774;2023-04-01T00:22:36;1.27;;;0.60;;
12970;SDS011;6550;48.650;8.774;2023-04-01T00:25:03;1.40;;;0.77;;
12970;SDS011;6550;48.650;8.774;2023-04-01T00:27:31;0.80;;;0.50;;
12970;SDS011;6550;48.650;8.774;2023-04-01T00:29:58;0.87;;;0.40;;
12970;SDS011;6550;48.650;8.774;2023-04-01T00:32:27;1.87;;;0.70;;
12970;SDS011;6550;48.650;8.774;2023-04-01T00:34:56;1.20;;;0.40;;
12970;SDS011;6550;48.650;8.774;2023-04-01T00:37:28;0.60;;;0.40;;
12970;SDS011;6550;48.650;8.774;2023-04-01T00:39:55;1.50;;;0.60;;
12970;SDS011;6550;48.650;8.774;2023-04-01T00:42:25;1.10;;;0.60;;
12970;SDS011;6550;48.650;8.774;2023-04-01T00:44:57;1.50;;;0.60;;
12970;SDS011;6550;48.650;8.774;2023-04-01T00:47:24;1.10;;;0.37;;
12970;SDS011;6550;48.650;8.774;2023-04-01T00:49:53;1.17;;;0.70;;
12970;SDS011;6550;48.650;8.774;2023-04-01T00:52:22;0.80;;;0.43;;
12970;SDS011;6550;48.650;8.774;2023-04-01T00:54:53;1.00;;;0.30;;
12970;SDS011;6550;48.650;8.774;2023-04-01T00:57:29;2.05;;;0.60;;
12970;SDS011;6550;48.650;8.774;2023-04-01T01:00:01;2.93;;;0.77;;
12970;SDS011;6550;48.650;8.774;2023-04-01T01:02:30;1.60;;;0.60;;
12970;SDS011;6550;48.650;8.774;2023-04-01T01:05:01;0.40;;;0.40;;
12970;SDS011;6550;48.650;8.774;2023-04-01T01:13:06;1.23;;;0.60;;
12970;SDS011;6550;48.650;8.774;2023-04-01T01:15:47;0.53;;;0.33;;
12970;SDS011;6550;48.650;8.774;2023-04-01T01:23:49;1.00;;;0.40;;
12970;SDS011;6550;48.650;8.774;2023-04-01T01:29:38;2.30;;;0.68;;
12970;SDS011;6550;48.650;8.774;2023-04-01T01:38:07;2.80;;;0.83;;
12970;SDS011;6550;48.650;8.774;2023-04-01T01:40:37;1.10;;;0.70;;
12970;SDS011;6550;48.650;8.774;2023-04-01T01:43:09;0.70;;;0.40;;
12970;SDS011;6550;48.650;8.774;2023-04-01T01:45:49;1.00;;;0.50;;
12970;SDS011;6550;48.650;8.774;2023-04-01T01:48:20;0.73;;;0.40;;
12970;SDS011;6550;48.650;8.774;2023-04-01T01:50:48;0.40;;;0.30;;
12970;SDS011;6550;48.650;8.774;2023-04-01T01:53:20;0.60;;;0.40;;
12970;SDS011;6550;48.650;8.774;2023-04-01T01:55:47;0.70;;;0.30;;
12970;SDS011;6550;48.650;8.774;2023-04-01T01:58:25;1.30;;;0.50;;
12970;SDS011;6550;48.650;8.774;2023-04-01T02:01:04;1.67;;;0.40;;
12970;SDS011;6550;48.650;8.774;2023-04-01T02:03:38;0.87;;;0.30;;
12970;SDS011;6550;48.650;8.774;2023-04-01T02:06:09;0.60;;;0.30;;
12970;SDS011;6550;48.650;8.774;2023-04-01T02:08:50;1.63;;;0.37;;
12970;SDS011;6550;48.650;8.774;2023-04-01T02:11:23;0.93;;;0.40;;
12970;SDS011;6550;48.650;8.774;2023-04-01T02:13:55;0.77;;;0.40;;
12970;SDS011;6550;48.650;8.774;2023-04-01T02:16:32;0.27;;;0.27;;
12970;SDS011;6550;48.650;8.774;2023-04-01T02:19:07;0.33;;;0.20;;
12970;SDS011;6550;48.650;8.774;2023-04-01T02:21:36;1.17;;;0.30;;
12970;SDS011;6550;48.650;8.774;2023-04-01T02:24:08;1.87;;;0.30;;
12970;SDS011;6550;48.650;8.774;2023-04-01T02:26:37;2.13;;;0.30;;
12970;SDS011;6550;48.650;8.774;2023-04-01T02:29:07;0.20;;;0.10;;
12970;SDS011;6550;48.650;8.774;2023-04-01T02:31:36;0.20;;;0.20;;
12970;SDS011;6550;48.650;8.774;2023-04-01T02:34:03;1.20;;;0.33;;
12970;SDS011;6550;48.650;8.774;2023-04-01T02:36:31;1.40;;;0.30;;
12970;SDS011;6550;48.650;8.774;2023-04-01T02:38:58;0.27;;;0.20;;
12970;SDS011;6550;48.650;8.774;2023-04-01T02:41:30;0.63;;;0.27;;
12970;SDS011;6550;48.650;8.774;2023-04-01T02:43:57;0.57;;;0.30;;
12970;SDS011;6550;48.650;8.774;2023-04-01T02:46:27;0.43;;;0.20;;
12970;SDS011;6550;48.650;8.774;2023-04-01T02:48:54;1.60;;;0.30;;
12970;SDS011;6550;48.650;8.774;2023-04-01T02:51:21;0.70;;;0.33;;
12970;SDS011;6550;48.650;8.774;2023-04-01T02:53:50;2.03;;;0.40;;
12970;SDS011;6550;48.650;8.774;2023-04-01T02:56:19;0.20;;;0.20;;
12970;SDS011;6550;48.650;8.774;2023-04-01T02:58:46;0.20;;;0.10;;
12970;SDS011;6550;48.650;8.774;2023-04-01T03:01:13;1.07;;;0.30;;
12970;SDS011;6550;48.650;8.774;2023-04-01T03:03:40;0.40;;;0.20;;
12970;SDS011;6550;48.650;8.774;2023-04-01T03:06:10;0.50;;;0.17;;
12970;SDS011;6550;48.650;8.774;2023-04-01T03:08:38;0.20;;;0.03;;
12970;SDS011;6550;48.650;8.774;2023-04-01T03:11:05;0.40;;;0.17;;
12970;SDS011;6550;48.650;8.774;2023-04-01T03:13:32;0.50;;;0.10;;
12970;SDS011;6550;48.650;8.774;2023-04-01T03:15:59;0.40;;;0.30;;
12970;SDS011;6550;48.650;8.774;2023-04-01T03:18:25;0.30;;;0.30;;
12970;SDS011;6550;48.650;8.774;2023-04-01T03:20:54;0.63;;;0.27;;
12970;SDS011;6550;48.650;8.774;2023-04-01T03:23:23;1.17;;;0.20;;
12970;SDS011;6550;48.650;8.774;2023-04-01T03:25:53;0.30;;;0.20;;
12970;SDS011;6550;48.650;8.774;2023-04-01T03:28:20;0.47;;;0.20;;
12970;SDS011;6550;48.650;8.774;2023-04-01T03:30:47;0.50;;;0.20;;
12970;SDS011;6550;48.650;8.774;2023-04-01T03:33:14;0.70;;;0.50;;
12970;SDS011;6550;48.650;8.774;2023-04-01T03:35:41;0.53;;;0.20;;
12970;SDS011;6550;48.650;8.774;2023-04-01T03:38:10;0.63;;;0.30;;
12970;SDS011;6550;48.650;8.774;2023-04-01T03:40:37;0.80;;;0.40;;
12970;SDS011;6550;48.650;8.774;2023-04-01T03:43:04;1.67;;;0.30;;
12970;SDS011;6550;48.650;8.774;2023-04-01T03:45:34;1.70;;;0.40;;
12970;SDS011;6550;48.650;8.774;2023-04-01T03:48:01;1.47;;;0.40;;
12970;SDS011;6550;48.650;8.774;2023-04-01T03:50:28;0.53;;;0.20;;
12970;SDS011;6550;48.650;8.774;2023-04-01T03:52:56;1.40;;;0.40;;
12970;SDS011;6550;48.650;8.774;2023-04-01T03:55:25;0.43;;;0.30;;
12970;SDS011;6550;48.650;8.774;2023-04-01T03:57:52;0.47;;;0.37;;
12970;SDS011;6550;48.650;8.774;2023-04-01T04:00:19;0.93;;;0.20;;
12970;SDS011;6550;48.650;8.774;2023-04-01T04:02:46;0.10;;;0.10;;
12970;SDS011;6550;48.650;8.774;2023-04-01T04:05:15;1.33;;;0.30;;
12970;SDS011;6550;48.650;8.774;2023-04-01T04:07:42;0.30;;;0.20;;
12970;SDS011;6550;48.650;8.774;2023-04-01T04:10:11;0.43;;;0.20;;
12970;SDS011;6550;48.650;8.774;2023-04-01T04:12:38;0.40;;;0.20;;
12970;SDS011;6550;48.650;8.774;2023-04-01T04:15:07;0.30;;;0.30;;
12970;SDS011;6550;48.650;8.774;2023-04-01T04:17:37;0.50;;;0.20;;
12970;SDS011;6550;48.650;8.774;2023-04-01T04:20:06;0.97;;;0.30;;
12970;SDS011;6550;48.650;8.774;2023-04-01T04:22:34;1.67;;;0.40;;
12970;SDS011;6550;48.650;8.774;2023-04-01T04:25:01;0.50;;;0.30;;
12970;SDS011;6550;48.650;8.774;2023-04-01T04:27:28;0.10;;;0.10;;
12970;SDS011;6550;48.650;8.774;2023-04-01T04:29:57;0.90;;;0.30;;
12970;SDS011;6550;48.650;8.774;2023-04-01T04:32:26;1.37;;;0.40;;
12970;SDS011;6550;48.650;8.774;2023-04-01T04:34:55;0.50;;;0.30;;
12970;SDS011;6550;48.650;8.774;2023-04-01T04:37:21;0.90;;;0.30;;
12970;SDS011;6550;48.650;8.774;2023-04-01T04:39:48;0.70;;;0.10;;
12970;SDS011;6550;48.650;8.774;2023-04-01T04:42:17;2.90;;;0.33;;
12970;SDS011;6550;48.650;8.774;2023-04-01T04:44:44;0.77;;;0.20;;
12970;SDS011;6550;48.650;8.774;2023-04-01T04:47:13;1.77;;;0.40;;
12970;SDS011;6550;48.650;8.774;2023-04-01T04:49:39;0.80;;;0.40;;
12970;SDS011;6550;48.650;8.774;2023-04-01T04:52:11;1.87;;;0.77;;
12970;SDS011;6550;48.650;8.774;2023-04-01T04:54:38;0.83;;;0.33;;
12970;SDS011;6550;48.650;8.774;2023-04-01T04:57:07;1.03;;;0.50;;
12970;SDS011;6550;48.650;8.774;2023-04-01T04:59:34;1.07;;;0.40;;
12970;SDS011;6550;48.650;8.774;2023-04-01T05:02:03;0.40;;;0.40;;
12970;SDS011;6550;48.650;8.774;2023-04-01T05:04:33;0.77;;;0.40;;
12970;SDS011;6550;48.650;8.774;2023-04-01T05:07:04;2.60;;;0.40;;
12970;SDS011;6550;48.650;8.774;2023-04-01T05:09:31;1.33;;;0.40;;
12970;SDS011;6550;48.650;8.774;2023-04-01T05:11:58;4.40;;;0.50;;
12970;SDS011;6550;48.650;8.774;2023-04-01T05:14:24;0.70;;;0.20;;
12970;SDS011;6550;48.650;8.774;2023-04-01T05:16:51;1.03;;;0.47;;
12970;SDS011;6550;48.650;8.774;2023-04-01T05:19:18;0.43;;;0.37;;
12970;SDS011;6550;48.650;8.774;2023-04-01T05:21:45;1.10;;;0.50;;
12970;SDS011;6550;48.650;8.774;2023-04-01T05:24:14;1.43;;;0.43;;
12970;SDS011;6550;48.650;8.774;2023-04-01T05:26:43;1.10;;;0.40;;
12970;SDS011;6550;48.650;8.774;2023-04-01T05:29:14;1.13;;;0.30;;
12970;SDS011;6550;48.650;8.774;2023-04-01T05:31:44;1.15;;;0.70;;
12970;SDS011;6550;48.650;8.774;2023-04-01T05:34:10;0.83;;;0.40;;
12970;SDS011;6550;48.650;8.774;2023-04-01T05:36:39;1.13;;;0.40;;
12970;SDS011;6550;48.650;8.774;2023-04-01T05:39:08;1.40;;;0.50;;
12970;SDS011;6550;48.650;8.774;2023-04-01T05:41:36;1.20;;;0.33;;
12970;SDS011;6550;48.650;8.774;2023-04-01T05:44:03;0.20;;;0.20;;
12970;SDS011;6550;48.650;8.774;2023-04-01T05:46:36;0.97;;;0.33;;
12970;SDS011;6550;48.650;8.774;2023-04-01T05:49:05;0.63;;;0.40;;
12970;SDS011;6550;48.650;8.774;2023-04-01T05:51:32;2.23;;;0.50;;
12970;SDS011;6550;48.650;8.774;2023-04-01T05:54:01;0.93;;;0.33;;
12970;SDS011;6550;48.650;8.774;2023-04-01T05:56:33;0.67;;;0.57;;
12970;SDS011;6550;48.650;8.774;2023-04-01T05:59:02;1.70;;;0.30;;
12970;SDS011;6550;48.650;8.774;2023-04-01T06:01:29;3.10;;;0.40;;
12970;SDS011;6550;48.650;8.774;2023-04-01T06:03:58;0.73;;;0.30;;
12970;SDS011;6550;48.650;8.774;2023-04-01T06:06:29;0.67;;;0.40;;
12970;SDS011;6550;48.650;8.774;2023-04-01T06:23:11;1.50;;;0.57;;
12970;SDS011;6550;48.650;8.774;2023-04-01T06:48:40;1.67;;;0.80;;
12970;SDS011;6550;48.650;8.774;2023-04-01T06:53:49;1.37;;;0.80;;
12970;SDS011;6550;48.650;8.774;2023-04-01T06:56:23;1.47;;;0.70;;
12970;SDS011;6550;48.650;8.774;2023-04-01T07:01:35;1.30;;;0.80;;
12970;SDS011;6550;48.650;8.774;2023-04-01T07:04:13;2.33;;;0.90;;
12970;SDS011;6550;48.650;8.774;2023-04-01T07:09:19;1.20;;;1.00;;
12970;SDS011;6550;48.650;8.774;2023-04-01T07:11:48;1.67;;;1.10;;
12970;SDS011;6550;48.650;8.774;2023-04-01T07:14:35;2.20;;;0.90;;
12970;SDS011;6550;48.650;8.774;2023-04-01T07:17:17;2.10;;;0.70;;
12970;SDS011;6550;48.650;8.774;2023-04-01T07:19:52;1.53;;;0.80;;
12970;SDS011;6550;48.650;8.774;2023-04-01T07:25:03;0.80;;;0.80;;
12970;SDS011;6550;48.650;8.774;2023-04-01T07:27:40;1.63;;;0.80;;
12970;SDS011;6550;48.650;8.774;2023-04-01T07:30:15;0.70;;;0.70;;
12970;SDS011;6550;48.650;8.774;2023-04-01T07:32:47;1.77;;;1.10;;
12970;SDS011;6550;48.650;8.774;2023-04-01T07:36:03;1.00;;;0.90;;
12970;SDS011;6550;48.650;8.774;2023-04-01T07:38:44;0.80;;;0.80;;
12970;SDS011;6550;48.650;8.774;2023-04-01T07:55:43;1.60;;;0.93;;
12970;SDS011;6550;48.650;8.774;2023-04-01T07:58:04;3.30;;;1.10;;
12970;SDS011;6550;48.650;8.774;2023-04-01T08:03:33;1.23;;;1.00;;
12970;SDS011;6550;48.650;8.774;2023-04-01T08:06:28;1.40;;;0.80;;
12970;SDS011;6550;48.650;8.774;2023-04-01T08:17:16;1.70;;;0.90;;
12970;SDS011;6550;48.650;8.774;2023-04-01T08:22:30;2.20;;;0.83;;
12970;SDS011;6550;48.650;8.774;2023-04-01T08:25:10;3.57;;;0.83;;
12970;SDS011;6550;48.650;8.774;2023-04-01T08:27:51;0.90;;;0.70;;
12970;SDS011;6550;48.650;8.774;2023-04-01T08:33:29;2.93;;;0.90;;
12970;SDS011;6550;48.650;8.774;2023-04-01T08:38:31;1.03;;;0.93;;
12970;SDS011;6550;48.650;8.774;2023-04-01T08:41:07;1.80;;;0.93;;
12970;SDS011;6550;48.650;8.774;2023-04-01T08:49:21;1.60;;;0.70;;
12970;SDS011;6550;48.650;8.774;2023-04-01T08:54:46;1.60;;;1.03;;
12970;SDS011;6550;48.650;8.774;2023-04-01T09:10:56;1.60;;;1.07;;
12970;SDS011;6550;48.650;8.774;2023-04-01T09:19:51;1.63;;;0.90;;
12970;SDS011;6550;48.650;8.774;2023-04-01T09:25:53;1.43;;;0.97;;
12970;SDS011;6550;48.650;8.774;2023-04-01T09:34:38;1.30;;;0.83;;
12970;SDS011;6550;48.650;8.774;2023-04-01T09:37:35;1.00;;;0.90;;
12970;SDS011;6550;48.650;8.774;2023-04-01T09:40:18;2.40;;;0.80;;
12970;SDS011;6550;48.650;8.774;2023-04-01T10:05:25;0.83;;;0.80;;
12970;SDS011;6550;48.650;8.774;2023-04-01T10:13:47;1.07;;;1.00;;
12970;SDS011;6550;48.650;8.774;2023-04-01T10:18:59;0.70;;;0.70;;
12970;SDS011;6550;48.650;8.774;2023-04-01T10:59:07;0.70;;;0.70;;
12970;SDS011;6550;48.650;8.774;2023-04-01T11:13:26;1.30;;;0.60;;
12970;SDS011;6550;48.650;8.774;2023-04-01T11:24:37;0.50;;;0.50;;
12970;SDS011;6550;48.650;8.774;2023-04-01T11:32:52;39.07;;;5.07;;
12970;SDS011;6550;48.650;8.774;2023-04-01T12:13:42;8.23;;;1.63;;
12970;SDS011;6550;48.650;8.774;2023-04-01T12:19:41;6.65;;;1.70;;
12970;SDS011;6550;48.650;8.774;2023-04-01T12:30:23;5.97;;;1.30;;
12970;SDS011;6550;48.650;8.774;2023-04-01T12:38:48;1.77;;;1.03;;
12970;SDS011;6550;48.650;8.774;2023-04-01T12:43:57;1.03;;;0.90;;
12970;SDS011;6550;48.650;8.774;2023-04-01T12:52:13;1.93;;;1.10;;
12970;SDS011;6550;48.650;8.774;2023-04-01T13:08:36;0.80;;;0.70;;
12970;SDS011;6550;48.650;8.774;2023-04-01T13:14:06;0.60;;;0.60;;
12970;SDS011;6550;48.650;8.774;2023-04-01T13:17:32;4.15;;;0.80;;
12970;SDS011;6550;48.650;8.774;2023-04-01T13:28:32;0.97;;;0.73;;
12970;SDS011;6550;48.650;8.774;2023-04-01T13:33:50;2.95;;;1.10;;
12970;SDS011;6550;48.650;8.774;2023-04-01T13:42:01;1.40;;;0.80;;
12970;SDS011;6550;48.650;8.774;2023-04-01T14:08:20;8.33;;;1.30;;
12970;SDS011;6550;48.650;8.774;2023-04-01T14:16:14;1.80;;;0.70;;
12970;SDS011;6550;48.650;8.774;2023-04-01T14:21:35;1.93;;;0.80;;
12970;SDS011;6550;48.650;8.774;2023-04-01T14:32:24;2.67;;;1.40;;
12970;SDS011;6550;48.650;8.774;2023-04-01T14:52:46;0.93;;;0.93;;
12970;SDS011;6550;48.650;8.774;2023-04-01T15:03:48;1.13;;;1.00;;
12970;SDS011;6550;48.650;8.774;2023-04-01T15:14:34;0.77;;;0.70;;
12970;SDS011;6550;48.650;8.774;2023-04-01T15:20:08;2.30;;;0.60;;
12970;SDS011;6550;48.650;8.774;2023-04-01T15:35:57;1.15;;;0.90;;
12970;SDS011;6550;48.650;8.774;2023-04-01T15:41:15;0.80;;;0.80;;
12970;SDS011;6550;48.650;8.774;2023-04-01T15:43:44;1.27;;;0.83;;
12970;SDS011;6550;48.650;8.774;2023-04-01T16:00:28;1.20;;;1.10;;
12970;SDS011;6550;48.650;8.774;2023-04-01T16:03:37;1.10;;;1.00;;
12970;SDS011;6550;48.650;8.774;2023-04-01T16:06:34;0.85;;;0.82;;
12970;SDS011;6550;48.650;8.774;2023-04-01T16:12:16;1.73;;;0.77;;
12970;SDS011;6550;48.650;8.774;2023-04-01T16:15:12;0.80;;;0.80;;
12970;SDS011;6550;48.650;8.774;2023-04-01T16:17:58;1.00;;;0.90;;
12970;SDS011;6550;48.650;8.774;2023-04-01T16:20:53;1.27;;;1.17;;
12970;SDS011;6550;48.650;8.774;2023-04-01T16:23:30;3.13;;;1.30;;
12970;SDS011;6550;48.650;8.774;2023-04-01T16:26:33;1.40;;;1.27;;
12970;SDS011;6550;48.650;8.774;2023-04-01T16:31:45;2.80;;;1.20;;
12970;SDS011;6550;48.650;8.774;2023-04-01T16:34:34;4.43;;;1.13;;
12970;SDS011;6550;48.650;8.774;2023-04-01T16:53:34;1.83;;;1.50;;
12970;SDS011;6550;48.650;8.774;2023-04-01T16:56:24;1.70;;;1.20;;
12970;SDS011;6550;48.650;8.774;2023-04-01T16:59:55;2.87;;;1.30;;
12970;SDS011;6550;48.650;8.774;2023-04-01T17:01:57;4.63;;;1.55;;
12970;SDS011;6550;48.650;8.774;2023-04-01T17:07:26;1.40;;;1.30;;
12970;SDS011;6550;48.650;8.774;2023-04-01T17:12:49;1.50;;;1.30;;
12970;SDS011;6550;48.650;8.774;2023-04-01T17:18:28;3.30;;;1.20;;
12970;SDS011;6550;48.650;8.774;2023-04-01T17:21:18;3.00;;;1.60;;
12970;SDS011;6550;48.650;8.774;2023-04-01T17:27:03;1.53;;;1.43;;
12970;SDS011;6550;48.650;8.774;2023-04-01T17:35:35;1.73;;;1.53;;
12970;SDS011;6550;48.650;8.774;2023-04-01T17:38:17;2.33;;;1.80;;
12970;SDS011;6550;48.650;8.774;2023-04-01T17:40:53;2.30;;;1.70;;
12970;SDS011;6550;48.650;8.774;2023-04-01T17:43:30;1.60;;;1.50;;
12970;SDS011;6550;48.650;8.774;2023-04-01T17:46:28;2.70;;;1.73;;
12970;SDS011;6550;48.650;8.774;2023-04-01T18:02:54;1.10;;;1.00;;
12970;SDS011;6550;48.650;8.774;2023-04-01T18:08:49;1.33;;;1.23;;
12970;SDS011;6550;48.650;8.774;2023-04-01T18:25:22;1.70;;;1.20;;
12970;SDS011;6550;48.650;8.774;2023-04-01T18:30:40;1.77;;;1.60;;
12970;SDS011;6550;48.650;8.774;2023-04-01T18:38:40;2.60;;;1.50;;
12970;SDS011;6550;48.650;8.774;2023-04-01T18:52:38;2.03;;;1.80;;
12970;SDS011;6550;48.650;8.774;2023-04-01T18:58:12;2.07;;;1.77;;
12970;SDS011;6550;48.650;8.774;2023-04-01T19:06:09;2.63;;;2.10;;
12970;SDS011;6550;48.650;8.774;2023-04-01T19:08:48;1.97;;;1.73;;
12970;SDS011;6550;48.650;8.774;2023-04-01T19:11:31;1.93;;;1.67;;
12970;SDS011;6550;48.650;8.774;2023-04-01T19:28:28;1.97;;;1.53;;
12970;SDS011;6550;48.650;8.774;2023-04-01T19:34:19;1.87;;;1.60;;
12970;SDS011;6550;48.650;8.774;2023-04-01T19:36:53;3.23;;;1.80;;
12970;SDS011;6550;48.650;8.774;2023-04-01T19:54:20;1.47;;;1.37;;
12970;SDS011;6550;48.650;8.774;2023-04-01T19:57:00;1.90;;;1.57;;
12970;SDS011;6550;48.650;8.774;2023-04-01T19:59:37;2.03;;;1.70;;
12970;SDS011;6550;48.650;8.774;2023-04-01T20:04:40;2.47;;;1.63;;
12970;SDS011;6550;48.650;8.774;2023-04-01T20:07:26;1.90;;;1.30;;
12970;SDS011;6550;48.650;8.774;2023-04-01T20:15:19;1.20;;;1.10;;
12970;SDS011;6550;48.650;8.774;2023-04-01T20:18:04;5.67;;;1.47;;
12970;SDS011;6550;48.650;8.774;2023-04-01T20:20:54;1.50;;;1.40;;
12970;SDS011;6550;48.650;8.774;2023-04-01T20:23:42;1.40;;;1.30;;
12970;SDS011;6550;48.650;8.774;2023-04-01T20:26:19;2.17;;;1.50;;
12970;SDS011;6550;48.650;8.774;2023-04-01T20:32:04;1.83;;;1.53;;
12970;SDS011;6550;48.650;8.774;2023-04-01T20:37:35;1.33;;;1.23;;
12970;SDS011;6550;48.650;8.774;2023-04-01T21:05:33;1.80;;;1.50;;
12970;SDS011;6550;48.650;8.774;2023-04-01T21:36:18;1.60;;;1.50;;
12970;SDS011;6550;48.650;8.774;2023-04-01T21:41:56;1.60;;;1.50;;
12970;SDS011;6550;48.650;8.774;2023-04-01T22:06:29;2.87;;;1.50;;
12970;SDS011;6550;48.650;8.774;2023-04-01T22:09:10;1.40;;;1.30;;
12970;SDS011;6550;48.650;8.774;2023-04-01T22:12:38;2.37;;;1.50;;
12970;SDS011;6550;48.650;8.774;2023-04-01T22:18:18;1.33;;;1.10;;
12970;SDS011;6550;48.650;8.774;2023-04-01T22:20:42;1.60;;;1.30;;
12970;SDS011;6550;48.650;8.774;2023-04-01T22:23:29;1.30;;;1.20;;
12970;SDS011;6550;48.650;8.774;2023-04-01T22:26:04;1.20;;;1.10;;
12970;SDS011;6550;48.650;8.774;2023-04-01T22:28:42;1.13;;;1.00;;
12970;SDS011;6550;48.650;8.774;2023-04-01T22:31:26;0.73;;;0.73;;
12970;SDS011;6550;48.650;8.774;2023-04-01T22:34:17;1.60;;;1.00;;
12970;SDS011;6550;48.650;8.774;2023-04-01T22:42:51;1.00;;;0.60;;
12970;SDS011;6550;48.650;8.774;2023-04-01T22:45:33;1.00;;;0.90;;
12970;SDS011;6550;48.650;8.774;2023-04-01T22:48:13;0.60;;;0.60;;
12970;SDS011;6550;48.650;8.774;2023-04-01T22:56:23;1.47;;;0.57;;
12970;SDS011;6550;48.650;8.774;2023-04-01T23:05:09;0.63;;;0.60;;
12970;SDS011;6550;48.650;8.774;2023-04-01T23:12:57;2.07;;;0.80;;
12970;SDS011;6550;48.650;8.774;2023-04-01T23:15:30;1.47;;;0.60;;
12970;SDS011;6550;48.650;8.774;2023-04-01T23:18:06;0.77;;;0.73;;
12970;SDS011;6550;48.650;8.774;2023-04-01T23:34:02;4.10;;;0.60;;
12970;SDS011;6550;48.650;8.774;2023-04-01T23:41:58;1.03;;;0.50;;
12970;SDS011;6550;48.650;8.774;2023-04-01T23:44:30;1.20;;;0.60;;
12970;SDS011;6550;48.650;8.774;2023-04-01T23:47:01;0.67;;;0.67;;
12970;SDS011;6550;48.650;8.774;2023-04-01T23:49:33;1.00;;;0.70;;
12970;SDS011;6550;48.650;8.774;2023-04-01T23:54:54;2.63;;;0.53;;
12970;SDS011;6550;48.650;8.774;2023-04-01T23:57:31;0.50;;;0.50;;
